Time,TemperatureF,DewpointF,PressureIn,WindDirection,WindDirectionDegrees,WindSpeedMPH,WindSpeedGustMPH,Humidity,HourlyPrecipIn,Conditions,Clouds,dailyrainin,SolarRadiationWatts/m^2,SoftwareType,DateUTC
2013-03-09 00:13:00,28.6,21.0,30.41,SW,222,0.0,0.0,74,0.00,,,0.00,0,weatherlink.com 1.10,2013-03-09 05:13:00,
2013-03-09 00:28:00,28.4,21.0,30.41,SW,223,0.0,0.0,75,0.00,,,0.00,0,weatherlink.com 1.10,2013-03-09 05:28:00,
2013-03-09 00:43:00,28.2,21.0,30.40,SW,223,0.0,0.0,75,0.00,,,0.00,0,weatherlink.com 1.10,2013-03-09 05:43:00,
2013-03-09 00:58:00,27.9,21.0,30.40,SW,223,0.0,0.0,76,0.00,,,0.00,0,weatherlink.com 1.10,2013-03-09 05:58:00,
2013-03-09 01:14:00,27.7,21.0,30.40,SW,222,0.0,0.0,76,0.00,,,0.00,0,weatherlink.com 1.10,2013-03-09 06:14:00,
2013-03-09 01:29:00,27.4,21.0,30.40,SW,223,0.0,0.0,76,0.00,,,0.00,0,weatherlink.com 1.10,2013-03-09 06:29:00,
2013-03-09 01:44:00,27.3,21.0,30.40,SW,222,0.0,0.0,76,0.00,,,0.00,0,weatherlink.com 1.10,2013-03-09 06:44:00,
2013-03-09 01:59:00,27.1,21.0,30.39,SW,223,0.0,0.0,77,0.00,,,0.00,0,weatherlink.com 1.10,2013-03-09 06:59:00,
2013-03-09 02:14:00,27.0,21.0,30.39,SW,223,0.0,1.0,77,0.00,,,0.00,0,weatherlink.com 1.10,2013-03-09 07:14:00,
2013-03-09 02:29:00,27.1,21.0,30.38,SW,222,0.0,2.0,77,0.00,,,0.00,0,weatherlink.com 1.10,2013-03-09 07:29:00,
2013-03-09 02:44:00,27.2,21.0,30.37,SW,223,0.0,2.0,76,0.00,,,0.00,0,weatherlink.com 1.10,2013-03-09 07:44:00,
2013-03-09 02:59:00,27.5,21.0,30.36,SW,222,1.0,2.0,75,0.00,,,0.00,0,weatherlink.com 1.10,2013-03-09 07:59:00,
2013-03-09 03:14:00,27.6,21.0,30.35,SW,223,0.0,2.0,75,0.00,,,0.00,0,weatherlink.com 1.10,2013-03-09 08:14:00,
2013-03-09 03:29:00,27.5,21.0,30.35,SW,222,0.0,0.0,75,0.00,,,0.00,0,weatherlink.com 1.10,2013-03-09 08:29:00,
2013-03-09 03:44:00,27.2,20.0,30.34,SW,222,0.0,0.0,75,0.00,,,0.00,0,weatherlink.com 1.10,2013-03-09 08:44:00,
2013-03-09 03:59:00,26.9,20.0,30.34,SW,223,0.0,2.0,76,0.00,,,0.00,0,weatherlink.com 1.10,2013-03-09 08:59:00,
2013-03-09 04:14:00,26.9,20.0,30.34,SW,222,0.0,2.0,76,0.00,,,0.00,0,weatherlink.com 1.10,2013-03-09 09:14:00,
2013-03-09 04:29:00,26.8,20.0,30.34,SW,223,0.0,0.0,76,0.00,,,0.00,0,weatherlink.com 1.10,2013-03-09 09:29:00,
2013-03-09 04:44:00,26.6,20.0,30.34,SW,222,0.0,2.0,76,0.00,,,0.00,0,weatherlink.com 1.10,2013-03-09 09:44:00,
2013-03-09 04:59:00,26.7,20.0,30.34,SW,222,1.0,2.0,76,0.00,,,0.00,0,weatherlink.com 1.10,2013-03-09 09:59:00,
2013-03-09 05:14:00,26.9,20.0,30.34,SW,222,0.0,0.0,76,0.00,,,0.00,0,weatherlink.com 1.10,2013-03-09 10:14:00,
2013-03-09 05:29:00,27.1,20.0,30.34,SSE,166,0.0,3.0,76,0.00,,,0.00,0,weatherlink.com 1.10,2013-03-09 10:29:00,
2013-03-09 05:44:00,27.2,21.0,30.34,SSE,166,0.0,0.0,76,0.00,,,0.00,0,weatherlink.com 1.10,2013-03-09 10:44:00,
2013-03-09 05:59:00,27.2,21.0,30.34,SSE,164,0.0,2.0,76,0.00,,,0.00,0,weatherlink.com 1.10,2013-03-09 10:59:00,
2013-03-09 06:14:00,27.8,21.0,30.33,ESE,110,0.0,3.0,76,0.00,,,0.00,0,weatherlink.com 1.10,2013-03-09 11:14:00,
2013-03-09 06:29:00,28.2,22.0,30.32,ESE,113,1.0,4.0,76,0.00,,,0.00,0,weatherlink.com 1.10,2013-03-09 11:29:00,
2013-03-09 06:44:00,28.5,22.0,30.32,ESE,103,2.0,3.0,76,0.00,,,0.00,0,weatherlink.com 1.10,2013-03-09 11:44:00,
2013-03-09 06:59:00,28.7,22.0,30.32,East,97,0.0,5.0,76,0.00,,,0.00,0,weatherlink.com 1.10,2013-03-09 11:59:00,
2013-03-09 07:14:00,28.8,22.0,30.32,East,96,0.0,5.0,76,0.00,,,0.00,9,weatherlink.com 1.10,2013-03-09 12:14:00,
2013-03-09 07:29:00,29.1,23.0,30.33,SE,126,0.0,4.0,77,0.00,,,0.00,21,weatherlink.com 1.10,2013-03-09 12:29:00,
2013-03-09 07:44:00,29.3,23.0,30.33,ESE,123,0.0,1.0,77,0.00,,,0.00,42,weatherlink.com 1.10,2013-03-09 12:44:00,
2013-03-09 07:59:00,29.7,23.0,30.33,East,92,2.0,3.0,77,0.00,,,0.00,70,weatherlink.com 1.10,2013-03-09 12:59:00,
2013-03-09 08:14:00,30.3,24.0,30.32,East,99,0.0,5.0,77,0.00,,,0.00,86,weatherlink.com 1.10,2013-03-09 13:14:00,
2013-03-09 08:29:00,31.4,25.0,30.32,ESE,107,0.0,3.0,77,0.00,,,0.00,121,weatherlink.com 1.10,2013-03-09 13:29:00,
2013-03-09 08:44:00,32.3,25.0,30.33,East,97,5.0,6.0,75,0.00,,,0.00,144,weatherlink.com 1.10,2013-03-09 13:44:00,
2013-03-09 09:00:00,33.1,25.0,30.31,ESE,112,3.0,8.0,73,0.00,,,0.00,155,weatherlink.com 1.10,2013-03-09 14:00:00,
2013-03-09 09:15:00,33.9,25.0,30.31,East,90,0.0,8.0,71,0.00,,,0.00,162,weatherlink.com 1.10,2013-03-09 14:15:00,
2013-03-09 09:30:00,34.7,25.0,30.31,East,96,0.0,5.0,68,0.00,,,0.00,171,weatherlink.com 1.10,2013-03-09 14:30:00,
2013-03-09 09:45:00,35.4,25.0,30.31,South,181,0.0,5.0,67,0.00,,,0.00,163,weatherlink.com 1.10,2013-03-09 14:45:00,
2013-03-09 10:00:00,36.0,25.0,30.30,SSE,155,2.0,5.0,65,0.00,,,0.00,225,weatherlink.com 1.10,2013-03-09 15:00:00,
2013-03-09 10:15:00,37.1,26.0,30.31,SSE,157,0.0,6.0,64,0.00,,,0.00,295,weatherlink.com 1.10,2013-03-09 15:15:00,
2013-03-09 10:30:00,37.8,26.0,30.31,WSW,248,2.0,8.0,62,0.00,,,0.00,230,weatherlink.com 1.10,2013-03-09 15:30:00,
2013-03-09 10:45:00,38.2,26.0,30.30,SE,125,0.0,2.0,61,0.00,,,0.00,220,weatherlink.com 1.10,2013-03-09 15:45:00,
2013-03-09 11:00:00,38.9,26.0,30.30,SSW,211,0.0,9.0,60,0.00,,,0.00,304,weatherlink.com 1.10,2013-03-09 16:00:00,
2013-03-09 11:15:00,39.7,26.0,30.29,SSW,213,3.0,7.0,58,0.00,,,0.00,397,weatherlink.com 1.10,2013-03-09 16:15:00,
2013-03-09 11:30:00,40.1,26.0,30.28,SE,146,1.0,6.0,58,0.00,,,0.00,413,weatherlink.com 1.10,2013-03-09 16:30:00,
2013-03-09 11:45:00,40.7,26.0,30.28,East,82,2.0,7.0,57,0.00,,,0.00,369,weatherlink.com 1.10,2013-03-09 16:45:00,
2013-03-09 12:00:00,40.6,26.0,30.27,South,177,0.0,9.0,56,0.00,,,0.00,272,weatherlink.com 1.10,2013-03-09 17:00:00,
2013-03-09 12:15:00,40.9,27.0,30.26,West,271,1.0,11.0,57,0.00,,,0.00,420,weatherlink.com 1.10,2013-03-09 17:15:00,
2013-03-09 12:30:00,41.9,27.0,30.25,SE,133,0.0,12.0,56,0.00,,,0.00,353,weatherlink.com 1.10,2013-03-09 17:30:00,
2013-03-09 12:45:00,42.0,27.0,30.24,SE,142,1.0,12.0,56,0.00,,,0.00,257,weatherlink.com 1.10,2013-03-09 17:45:00,
2013-03-09 13:00:00,41.7,27.0,30.22,SSE,167,2.0,9.0,57,0.00,,,0.00,130,weatherlink.com 1.10,2013-03-09 18:00:00,
2013-03-09 13:15:00,41.3,27.0,30.20,SSE,150,0.0,5.0,58,0.00,,,0.00,183,weatherlink.com 1.10,2013-03-09 18:15:00,
2013-03-09 13:30:00,41.1,28.0,30.18,ESE,119,2.0,7.0,59,0.00,,,0.00,230,weatherlink.com 1.10,2013-03-09 18:30:00,
2013-03-09 13:45:00,41.4,28.0,30.17,East,99,5.0,13.0,59,0.00,,,0.00,248,weatherlink.com 1.10,2013-03-09 18:45:00,
2013-03-09 14:00:00,41.5,29.0,30.15,East,88,9.0,13.0,61,0.00,,,0.00,227,weatherlink.com 1.10,2013-03-09 19:00:00,
2013-03-09 14:15:00,41.2,29.0,30.15,SSE,158,4.0,10.0,61,0.00,,,0.00,230,weatherlink.com 1.10,2013-03-09 19:15:00,
2013-03-09 14:31:00,41.6,28.0,30.14,East,94,0.0,12.0,60,0.00,,,0.00,355,weatherlink.com 1.10,2013-03-09 19:31:00,
2013-03-09 14:46:00,42.0,28.0,30.13,ESE,103,3.0,11.0,59,0.00,,,0.00,155,weatherlink.com 1.10,2013-03-09 19:46:00,
2013-03-09 15:01:00,41.7,29.0,30.13,East,98,2.0,11.0,60,0.00,,,0.00,142,weatherlink.com 1.10,2013-03-09 20:01:00,
2013-03-09 15:16:00,41.4,29.0,30.12,ESE,123,1.0,12.0,61,0.00,,,0.00,151,weatherlink.com 1.10,2013-03-09 20:16:00,
2013-03-09 15:31:00,41.5,29.0,30.12,ESE,123,1.0,9.0,62,0.00,,,0.00,193,weatherlink.com 1.10,2013-03-09 20:31:00,
2013-03-09 15:46:00,42.0,29.0,30.12,East,88,5.0,11.0,61,0.00,,,0.00,185,weatherlink.com 1.10,2013-03-09 20:46:00,
2013-03-09 16:01:00,42.2,29.0,30.12,SSE,148,4.0,8.0,61,0.00,,,0.00,156,weatherlink.com 1.10,2013-03-09 21:01:00,
2013-03-09 16:16:00,42.3,30.0,30.11,East,94,6.0,10.0,61,0.00,,,0.00,118,weatherlink.com 1.10,2013-03-09 21:16:00,
2013-03-09 16:31:00,42.3,30.0,30.10,SE,146,4.0,11.0,61,0.00,,,0.00,141,weatherlink.com 1.10,2013-03-09 21:31:00,
2013-03-09 16:46:00,42.5,30.0,30.09,ESE,106,0.0,8.0,61,0.00,,,0.00,169,weatherlink.com 1.10,2013-03-09 21:46:00,
2013-03-09 17:01:00,42.6,30.0,30.09,South,178,5.0,11.0,61,0.00,,,0.00,95,weatherlink.com 1.10,2013-03-09 22:01:00,
2013-03-09 17:16:00,42.5,30.0,30.09,SSE,164,1.0,7.0,61,0.00,,,0.00,93,weatherlink.com 1.10,2013-03-09 22:16:00,
2013-03-09 17:31:00,42.1,30.0,30.07,East,97,7.0,10.0,62,0.00,,,0.00,37,weatherlink.com 1.10,2013-03-09 22:31:00,
2013-03-09 17:46:00,41.7,30.0,30.08,ESE,107,0.0,13.0,63,0.00,,,0.00,21,weatherlink.com 1.10,2013-03-09 22:46:00,
2013-03-09 18:01:00,41.6,30.0,30.07,ESE,123,0.0,6.0,64,0.00,,,0.00,32,weatherlink.com 1.10,2013-03-09 23:01:00,
2013-03-09 18:16:00,41.3,30.0,30.07,East,94,2.0,7.0,65,0.00,,,0.00,18,weatherlink.com 1.10,2013-03-09 23:16:00,
2013-03-09 18:31:00,41.1,30.0,30.07,East,95,1.0,6.0,65,0.00,,,0.00,5,weatherlink.com 1.10,2013-03-09 23:31:00,
2013-03-09 18:46:00,41.1,30.0,30.06,ESE,122,2.0,5.0,65,0.00,,,0.00,0,weatherlink.com 1.10,2013-03-09 23:46:00,
2013-03-09 19:01:00,40.9,30.0,30.06,ESE,112,0.0,6.0,66,0.00,,,0.00,0,weatherlink.com 1.10,2013-03-10 00:01:00,
2013-03-09 19:16:00,40.7,30.0,30.06,ESE,115,0.0,5.0,67,0.00,,,0.00,0,weatherlink.com 1.10,2013-03-10 00:16:00,
2013-03-09 19:31:00,40.4,31.0,30.05,ESE,107,0.0,8.0,68,0.00,,,0.00,0,weatherlink.com 1.10,2013-03-10 00:31:00,
2013-03-09 19:46:00,40.2,31.0,30.04,East,101,3.0,8.0,69,0.00,,,0.00,0,weatherlink.com 1.10,2013-03-10 00:46:00,
2013-03-09 20:01:00,40.2,31.0,30.03,ESE,117,2.0,7.0,69,0.00,,,0.00,0,weatherlink.com 1.10,2013-03-10 01:01:00,
2013-03-09 20:16:00,40.1,31.0,30.04,SE,126,0.0,4.0,70,0.00,,,0.00,0,weatherlink.com 1.10,2013-03-10 01:16:00,
2013-03-09 20:31:00,40.0,31.0,30.03,SE,128,2.0,5.0,70,0.00,,,0.00,0,weatherlink.com 1.10,2013-03-10 01:31:00,
2013-03-09 20:46:00,40.1,31.0,30.03,East,98,0.0,4.0,71,0.00,,,0.00,0,weatherlink.com 1.10,2013-03-10 01:46:00,
2013-03-09 21:01:00,40.2,32.0,30.02,East,86,5.0,7.0,72,0.00,,,0.00,0,weatherlink.com 1.10,2013-03-10 02:01:00,
2013-03-09 21:16:00,40.3,32.0,30.02,ESE,117,0.0,5.0,73,0.00,,,0.00,0,weatherlink.com 1.10,2013-03-10 02:16:00,
2013-03-09 21:31:00,40.2,33.0,30.01,East,99,1.0,7.0,74,0.00,,,0.00,0,weatherlink.com 1.10,2013-03-10 02:31:00,
2013-03-09 21:46:00,40.4,33.0,30.00,East,100,0.0,3.0,74,0.00,,,0.00,0,weatherlink.com 1.10,2013-03-10 02:46:00,
2013-03-09 22:01:00,40.7,33.0,30.01,East,101,0.0,3.0,74,0.00,,,0.00,0,weatherlink.com 1.10,2013-03-10 03:01:00,
2013-03-09 22:19:00,40.9,33.0,30.01,SE,145,0.0,5.0,74,0.00,,,0.00,0,weatherlink.com 1.10,2013-03-10 03:19:00,
2013-03-09 22:31:00,40.8,33.0,30.01,SE,130,0.0,7.0,73,0.00,,,0.00,0,weatherlink.com 1.10,2013-03-10 03:31:00,
2013-03-09 22:46:00,40.6,33.0,30.00,ESE,121,1.0,3.0,73,0.00,,,0.00,0,weatherlink.com 1.10,2013-03-10 03:46:00,
2013-03-09 23:01:00,40.5,33.0,29.99,East,92,0.0,6.0,74,0.00,,,0.00,0,weatherlink.com 1.10,2013-03-10 04:01:00,
2013-03-09 23:16:00,40.4,33.0,29.98,ESE,110,0.0,4.0,74,0.00,,,0.00,0,weatherlink.com 1.10,2013-03-10 04:16:00,
2013-03-09 23:31:00,40.3,33.0,29.97,ENE,76,0.0,7.0,74,0.00,,,0.00,0,weatherlink.com 1.10,2013-03-10 04:31:00,
2013-03-09 23:46:00,40.1,33.0,29.97,ESE,105,0.0,6.0,75,0.00,,,0.00,0,weatherlink.com 1.10,2013-03-10 04:46:00,